Barbados Meteorological Services
Auto gathered TAF list
Powered by Apparatus software
For Flight AA1089
Contact Number 1-(246)-535-0021/2/3/4/5/6
WEB: http://www.barbadosweather.org

**********************************************

2022/05/25 18:18
TAF TLPL 251700Z 2518/2618 10017KT 9999 SCT026 SCT044 PROB30
TEMPO 2518/2606 SHRA SCT015 BKN040


**********************************************
2022/05/25 18:36
TAF TJSJ 251734Z 2518/2618 07014G20KT P6SM VCTS FEW025CB SCT050 SCT080
TEMPO 2518/2522 VRB16G25KT 4SM SHRA BKN025 BKN050
FM252300 09010KT P6SM SCT030 SCT050 BKN090
FM260600 VRB05KT P6SM VCSH SCT025 BKN040
FM261400 06015KT P6SM SCT030 SCT060


**********************************************
2022/05/25 12:58
TAF TFFR 251000Z 2512/2612 11010KT 9999 SCT025 SCT060 PROB30
TEMPO 2518/2612 4000 SHRA SCT020TCU PROB40
TEMPO 2600/2609 VRB02KT PROB30
TEMPO 2609/2612 2500 SHRA BKN016TCU


**********************************************
2022/05/25 18:11
TAF TBPB 251700Z 2518/2618 11016KT 9999 SCT018= TAF TVSA 251700Z 2518/2618 09012KT 9999 SCT018


**********************************************
2022/05/25 18:18
TAF TAPA 251700Z 2518/2618 09012KT 9999 SCT018 SCT035 PROB40
TEMPO 2518/2612 SHRA


**********************************************
2022/05/25 18:21
TAF MYNN 251700Z 2518/2618 13015KT 9999 SCT022 PROB30
TEMPO 2612/2616 9000 SHRA SCT018CB SCT045


**********************************************
2022/05/25 18:15
TAF MTPP 251600Z 2518/2618 10012KT 9999 FEW025
BECMG 2419/2423 30012KT PROB40
TEMPO 2600/2604 4000 TSRA SCT014CB BKN030
BECMG 2608/2610 VRB02KT 8000 NSW FEW016
FM261300 12012KT 9000 FEW018


**********************************************
2022/05/25 18:32
TAF MDSD 251600Z 2518/2618 12008KT 8000-TSRA FEW016CB BKN018 SCT300
BECMG 2602/2604 03004KT PROB40 2606/2612 7000-TSRA FEW014CB BKN016


**********************************************
2022/05/25 18:27
TAF KSFB 251724Z 2518/2618 14011KT P6SM SCT040 BKN250
FM252100 12011KT P6SM FEW040 BKN250
FM260200 12005KT P6SM BKN250
FM261500 14009KT P6SM SCT035 BKN250


**********************************************
2022/05/25 18:28
TAF KPHL 251720Z 2518/2624 09007KT P6SM BKN080
FM260300 VRB04KT P6SM BKN070
FM260900 VRB02KT P6SM BKN030
FM261400 13005KT P6SM OVC020
FM262300 14005KT 5SM BR OVC015


**********************************************
2022/05/25 18:28
TAF KPBI 251725Z 2518/2618 12014G22KT P6SM SCT035 SCT250
FM252300 11011KT P6SM FEW030 SCT250
FM261400 12014G22KT P6SM SCT025 BKN050


**********************************************
2022/05/25 18:27
TAF KOPF 251725Z 2518/2618 12013G22KT P6SM SCT025 BKN050
FM252300 10010KT P6SM FEW030 SCT250
FM261400 12014G22KT P6SM SCT025 BKN050


**********************************************


**********************************************
2022/05/25 18:27
TAF KMIA 251725Z 2518/2624 12014G21KT P6SM SCT025 BKN050
FM252300 11011KT P6SM FEW030 SCT250
FM261400 11014G22KT P6SM SCT025 BKN050


**********************************************
2022/05/25 18:27
TAF KMCO 251724Z 2518/2624 12011G18KT P6SM SCT040 BKN250
FM260000 11010KT P6SM FEW040 BKN250
FM260200 12005KT P6SM BKN250
FM261500 14009KT P6SM SCT035 BKN250
FM262000 12012KT P6SM SCT035 BKN200


**********************************************
2022/05/25 18:33
TAF KJFK 251725Z 2518/2624 15010KT P6SM FEW090 BKN300
FM260000 14009KT P6SM SCT250
FM260600 13005KT P6SM SCT080 SCT150
FM261300 15013KT P6SM BKN080


**********************************************
2022/05/25 18:27
TAF KJAX 251725Z 2518/2618 12015G22KT P6SM SCT035 BKN050 BKN250
TEMPO 2518/2519 BKN035
FM260000 13010KT P6SM FEW035 SCT150 BKN250
FM260300 14005KT P6SM FEW025 BKN150 BKN250
FM261400 16013G20KT P6SM SCT025 BKN150 BKN250


**********************************************
2022/05/25 18:28
TAF KFLL 251725Z 2518/2624 12014G24KT P6SM SCT025 BKN050
FM252300 11012KT P6SM FEW030 SCT250
FM261400 12014G22KT P6SM SCT025 BKN050


**********************************************
2022/05/25 18:27
TAF KEWR 251725Z 2518/2624 VRB06KT P6SM FEW050 FEW080 BKN250
FM260000 12005KT P6SM SCT250
FM260800 09005KT P6SM SCT080 SCT150
FM261300 15010KT P6SM BKN080


**********************************************
2022/05/25 16:03
TAF
AMD KCLT 251601Z 2516/2618 05010KT P6SM OVC012
FM251900 11006KT P6SM SCT029 BKN060
FM260200 08007KT P6SM BKN020
FM261000 10006KT P6SM OVC007 PROB30 2614/2618 4SM -SHRA BR OVC010


**********************************************
2022/05/25 16:48
TAF
AMD KATL 251546Z 2516/2618 10010G20KT P6SM SCT008 BKN015
FM251900 10010G20KT P6SM SCT020 BKN035
TEMPO 2523/2602 4SM TSRA BR OVC025CB
FM260200 13006KT P6SM BKN035
FM260800 14007KT P6SM SCT008 BKN015
FM261400 15010KT 6SM -SHRA BKN007


**********************************************